sensor_id;sensor_type;location;lat;lon;timestamp;P1;durP1;ratioP1;P2;durP2;ratioP2
35462;SDS011;21578;47.892;9.970;2022-09-27T00:02:11;38.00;;;19.50;;
35462;SDS011;21578;47.892;9.970;2022-09-27T00:06:59;39.63;;;21.90;;
35462;SDS011;21578;47.892;9.970;2022-09-27T00:11:46;45.03;;;22.47;;
35462;SDS011;21578;47.892;9.970;2022-09-27T00:16:33;43.67;;;27.17;;
35462;SDS011;21578;47.892;9.970;2022-09-27T00:21:22;89.07;;;47.50;;
35462;SDS011;21578;47.892;9.970;2022-09-27T00:26:11;60.03;;;36.67;;
35462;SDS011;21578;47.892;9.970;2022-09-27T00:30:59;9.20;;;4.67;;
35462;SDS011;21578;47.892;9.970;2022-09-27T00:35:46;19.47;;;12.47;;
35462;SDS011;21578;47.892;9.970;2022-09-27T00:40:33;13.63;;;9.07;;
35462;SDS011;21578;47.892;9.970;2022-09-27T00:45:21;17.83;;;11.40;;
35462;SDS011;21578;47.892;9.970;2022-09-27T00:50:11;10.30;;;6.63;;
35462;SDS011;21578;47.892;9.970;2022-09-27T00:55:08;10.03;;;8.10;;
35462;SDS011;21578;47.892;9.970;2022-09-27T00:59:59;5.90;;;4.27;;
35462;SDS011;21578;47.892;9.970;2022-09-27T01:04:51;8.63;;;7.73;;
35462;SDS011;21578;47.892;9.970;2022-09-27T01:09:39;2.20;;;1.93;;
35462;SDS011;21578;47.892;9.970;2022-09-27T01:14:40;3.20;;;2.07;;
35462;SDS011;21578;47.892;9.970;2022-09-27T01:19:46;1.10;;;1.00;;
35462;SDS011;21578;47.892;9.970;2022-09-27T01:25:00;1.10;;;1.00;;
35462;SDS011;21578;47.892;9.970;2022-09-27T01:29:58;1.53;;;0.93;;
35462;SDS011;21578;47.892;9.970;2022-09-27T01:35:16;1.33;;;1.23;;
35462;SDS011;21578;47.892;9.970;2022-09-27T01:40:12;1.90;;;1.00;;
35462;SDS011;21578;47.892;9.970;2022-09-27T01:45:11;1.40;;;1.07;;
35462;SDS011;21578;47.892;9.970;2022-09-27T01:50:03;1.43;;;1.20;;
35462;SDS011;21578;47.892;9.970;2022-09-27T01:54:57;4.23;;;3.13;;
35462;SDS011;21578;47.892;9.970;2022-09-27T01:59:48;3.47;;;3.17;;
35462;SDS011;21578;47.892;9.970;2022-09-27T02:04:39;1.60;;;1.50;;
35462;SDS011;21578;47.892;9.970;2022-09-27T02:09:28;1.73;;;1.63;;
35462;SDS011;21578;47.892;9.970;2022-09-27T02:14:23;6.17;;;5.63;;
35462;SDS011;21578;47.892;9.970;2022-09-27T02:19:19;4.80;;;4.40;;
35462;SDS011;21578;47.892;9.970;2022-09-27T02:24:13;1.93;;;1.83;;
35462;SDS011;21578;47.892;9.970;2022-09-27T02:29:07;2.93;;;2.37;;
35462;SDS011;21578;47.892;9.970;2022-09-27T02:33:58;2.30;;;2.20;;
35462;SDS011;21578;47.892;9.970;2022-09-27T02:38:47;1.40;;;1.30;;
35462;SDS011;21578;47.892;9.970;2022-09-27T02:43:35;1.00;;;0.90;;
35462;SDS011;21578;47.892;9.970;2022-09-27T02:48:23;1.00;;;0.90;;
35462;SDS011;21578;47.892;9.970;2022-09-27T02:53:20;1.13;;;1.10;;
35462;SDS011;21578;47.892;9.970;2022-09-27T02:58:17;1.53;;;0.73;;
35462;SDS011;21578;47.892;9.970;2022-09-27T03:03:16;1.77;;;0.90;;
35462;SDS011;21578;47.892;9.970;2022-09-27T03:08:08;0.83;;;0.83;;
35462;SDS011;21578;47.892;9.970;2022-09-27T03:12:57;0.77;;;0.77;;
35462;SDS011;21578;47.892;9.970;2022-09-27T03:17:44;2.17;;;1.97;;
35462;SDS011;21578;47.892;9.970;2022-09-27T03:22:31;451.47;;;242.03;;
35462;SDS011;21578;47.892;9.970;2022-09-27T03:27:18;68.60;;;52.33;;
35462;SDS011;21578;47.892;9.970;2022-09-27T03:32:06;58.43;;;52.73;;
35462;SDS011;21578;47.892;9.970;2022-09-27T03:36:53;17.43;;;15.77;;
35462;SDS011;21578;47.892;9.970;2022-09-27T03:41:40;5.23;;;4.83;;
35462;SDS011;21578;47.892;9.970;2022-09-27T03:46:27;3.47;;;3.17;;
35462;SDS011;21578;47.892;9.970;2022-09-27T03:51:15;7.53;;;6.27;;
35462;SDS011;21578;47.892;9.970;2022-09-27T03:56:02;4.63;;;4.23;;
35462;SDS011;21578;47.892;9.970;2022-09-27T04:00:49;2.63;;;2.37;;
35462;SDS011;21578;47.892;9.970;2022-09-27T04:05:36;8.57;;;6.87;;
35462;SDS011;21578;47.892;9.970;2022-09-27T04:10:24;8.77;;;7.87;;
35462;SDS011;21578;47.892;9.970;2022-09-27T04:15:11;5.23;;;4.30;;
35462;SDS011;21578;47.892;9.970;2022-09-27T04:19:58;14.00;;;12.50;;
35462;SDS011;21578;47.892;9.970;2022-09-27T04:24:47;7.47;;;6.70;;
35462;SDS011;21578;47.892;9.970;2022-09-27T04:29:35;3.40;;;3.10;;
35462;SDS011;21578;47.892;9.970;2022-09-27T04:34:26;0.90;;;0.53;;
35462;SDS011;21578;47.892;9.970;2022-09-27T04:39:27;2.40;;;0.80;;
35462;SDS011;21578;47.892;9.970;2022-09-27T04:44:14;1.90;;;0.80;;
35462;SDS011;21578;47.892;9.970;2022-09-27T04:49:02;0.30;;;0.30;;
35462;SDS011;21578;47.892;9.970;2022-09-27T04:53:49;0.50;;;0.50;;
35462;SDS011;21578;47.892;9.970;2022-09-27T04:58:36;1.17;;;0.33;;
35462;SDS011;21578;47.892;9.970;2022-09-27T05:03:23;0.80;;;0.30;;
35462;SDS011;21578;47.892;9.970;2022-09-27T05:08:11;0.20;;;0.20;;
35462;SDS011;21578;47.892;9.970;2022-09-27T05:12:58;0.87;;;0.30;;
35462;SDS011;21578;47.892;9.970;2022-09-27T05:17:45;0.40;;;0.40;;
35462;SDS011;21578;47.892;9.970;2022-09-27T05:22:32;0.40;;;0.20;;
35462;SDS011;21578;47.892;9.970;2022-09-27T05:27:20;0.27;;;0.20;;
35462;SDS011;21578;47.892;9.970;2022-09-27T05:32:07;2.27;;;0.40;;
35462;SDS011;21578;47.892;9.970;2022-09-27T05:36:54;0.43;;;0.30;;
35462;SDS011;21578;47.892;9.970;2022-09-27T05:41:41;0.60;;;0.30;;
35462;SDS011;21578;47.892;9.970;2022-09-27T05:46:29;1.77;;;0.40;;
35462;SDS011;21578;47.892;9.970;2022-09-27T05:51:16;0.67;;;0.30;;
35462;SDS011;21578;47.892;9.970;2022-09-27T05:56:05;1.10;;;0.30;;
35462;SDS011;21578;47.892;9.970;2022-09-27T06:00:52;0.63;;;0.30;;
35462;SDS011;21578;47.892;9.970;2022-09-27T06:05:40;0.90;;;0.40;;
35462;SDS011;21578;47.892;9.970;2022-09-27T06:10:27;1.47;;;0.30;;
35462;SDS011;21578;47.892;9.970;2022-09-27T06:15:15;0.60;;;0.50;;
35462;SDS011;21578;47.892;9.970;2022-09-27T06:20:02;1.47;;;0.50;;
35462;SDS011;21578;47.892;9.970;2022-09-27T06:24:51;2.57;;;0.63;;
35462;SDS011;21578;47.892;9.970;2022-09-27T06:29:38;3.37;;;0.70;;
35462;SDS011;21578;47.892;9.970;2022-09-27T06:34:24;1.00;;;0.50;;
35462;SDS011;21578;47.892;9.970;2022-09-27T06:39:11;2.20;;;0.60;;
35462;SDS011;21578;47.892;9.970;2022-09-27T06:44:00;2.13;;;0.77;;
35462;SDS011;21578;47.892;9.970;2022-09-27T06:48:47;5.53;;;0.50;;
35462;SDS011;21578;47.892;9.970;2022-09-27T06:53:34;2.13;;;0.50;;
35462;SDS011;21578;47.892;9.970;2022-09-27T06:58:21;2.57;;;1.20;;
35462;SDS011;21578;47.892;9.970;2022-09-27T07:03:26;1.23;;;1.10;;
35462;SDS011;21578;47.892;9.970;2022-09-27T07:08:16;1.57;;;0.90;;
35462;SDS011;21578;47.892;9.970;2022-09-27T07:13:03;1.30;;;0.43;;
35462;SDS011;21578;47.892;9.970;2022-09-27T07:17:54;1.70;;;0.50;;
35462;SDS011;21578;47.892;9.970;2022-09-27T07:22:44;1.50;;;0.70;;
35462;SDS011;21578;47.892;9.970;2022-09-27T07:27:31;1.20;;;0.57;;
35462;SDS011;21578;47.892;9.970;2022-09-27T07:32:19;0.70;;;0.60;;
35462;SDS011;21578;47.892;9.970;2022-09-27T07:37:06;2.50;;;0.70;;
35462;SDS011;21578;47.892;9.970;2022-09-27T07:41:54;1.03;;;0.63;;
35462;SDS011;21578;47.892;9.970;2022-09-27T07:46:41;3.00;;;0.60;;
35462;SDS011;21578;47.892;9.970;2022-09-27T07:51:28;1.70;;;0.73;;
35462;SDS011;21578;47.892;9.970;2022-09-27T12:06:10;1.07;;;0.30;;
35462;SDS011;21578;47.892;9.970;2022-09-27T12:11:00;0.67;;;0.10;;
35462;SDS011;21578;47.892;9.970;2022-09-27T12:15:53;1.27;;;0.40;;
35462;SDS011;21578;47.892;9.970;2022-09-27T12:20:42;0.47;;;0.20;;
35462;SDS011;21578;47.892;9.970;2022-09-27T12:25:33;0.83;;;0.20;;
35462;SDS011;21578;47.892;9.970;2022-09-27T12:30:24;1.00;;;0.70;;
35462;SDS011;21578;47.892;9.970;2022-09-27T12:35:14;0.50;;;0.30;;
35462;SDS011;21578;47.892;9.970;2022-09-27T12:40:05;0.27;;;0.27;;
35462;SDS011;21578;47.892;9.970;2022-09-27T12:45:03;0.70;;;0.20;;
35462;SDS011;21578;47.892;9.970;2022-09-27T12:49:53;0.33;;;0.20;;
35462;SDS011;21578;47.892;9.970;2022-09-27T13:00:07;0.40;;;0.20;;
35462;SDS011;21578;47.892;9.970;2022-09-27T13:10:34;0.70;;;0.20;;
35462;SDS011;21578;47.892;9.970;2022-09-27T13:15:31;2.70;;;0.20;;
35462;SDS011;21578;47.892;9.970;2022-09-27T13:20:36;1.43;;;0.20;;
35462;SDS011;21578;47.892;9.970;2022-09-27T13:30:43;1.07;;;0.20;;
35462;SDS011;21578;47.892;9.970;2022-09-27T13:35:30;1.00;;;0.30;;
35462;SDS011;21578;47.892;9.970;2022-09-27T13:40:21;0.67;;;0.30;;
35462;SDS011;21578;47.892;9.970;2022-09-27T13:45:16;0.60;;;0.20;;
35462;SDS011;21578;47.892;9.970;2022-09-27T13:50:15;0.40;;;0.20;;
35462;SDS011;21578;47.892;9.970;2022-09-27T13:55:34;1.57;;;0.30;;
35462;SDS011;21578;47.892;9.970;2022-09-27T14:00:26;0.20;;;0.20;;
35462;SDS011;21578;47.892;9.970;2022-09-27T14:05:20;1.53;;;1.03;;
35462;SDS011;21578;47.892;9.970;2022-09-27T14:10:12;0.30;;;0.20;;
35462;SDS011;21578;47.892;9.970;2022-09-27T14:15:00;0.60;;;0.30;;
35462;SDS011;21578;47.892;9.970;2022-09-27T14:19:49;0.10;;;0.10;;
35462;SDS011;21578;47.892;9.970;2022-09-27T14:24:48;2.93;;;1.77;;
35462;SDS011;21578;47.892;9.970;2022-09-27T14:29:38;0.43;;;0.20;;
35462;SDS011;21578;47.892;9.970;2022-09-27T14:34:27;1.47;;;0.40;;
35462;SDS011;21578;47.892;9.970;2022-09-27T14:39:14;0.60;;;0.20;;
35462;SDS011;21578;47.892;9.970;2022-09-27T14:44:12;0.60;;;0.20;;
35462;SDS011;21578;47.892;9.970;2022-09-27T14:49:10;1.37;;;0.30;;
35462;SDS011;21578;47.892;9.970;2022-09-27T14:54:03;1.17;;;0.20;;
35462;SDS011;21578;47.892;9.970;2022-09-27T14:58:57;0.80;;;0.80;;
35462;SDS011;21578;47.892;9.970;2022-09-27T15:03:48;1.03;;;0.37;;
35462;SDS011;21578;47.892;9.970;2022-09-27T15:08:37;1.13;;;0.30;;
35462;SDS011;21578;47.892;9.970;2022-09-27T15:13:25;1.63;;;0.53;;
35462;SDS011;21578;47.892;9.970;2022-09-27T15:18:28;53.70;;;43.97;;
35462;SDS011;21578;47.892;9.970;2022-09-27T15:23:25;29.10;;;18.63;;
35462;SDS011;21578;47.892;9.970;2022-09-27T15:28:14;414.37;;;169.57;;
35462;SDS011;21578;47.892;9.970;2022-09-27T15:33:03;613.93;;;283.53;;
35462;SDS011;21578;47.892;9.970;2022-09-27T15:38:01;619.57;;;302.37;;
35462;SDS011;21578;47.892;9.970;2022-09-27T15:42:58;114.87;;;62.77;;
35462;SDS011;21578;47.892;9.970;2022-09-27T15:47:47;147.07;;;100.13;;
35462;SDS011;21578;47.892;9.970;2022-09-27T15:52:39;15.50;;;9.47;;
35462;SDS011;21578;47.892;9.970;2022-09-27T15:57:27;36.57;;;23.80;;
35462;SDS011;21578;47.892;9.970;2022-09-27T16:02:16;5.77;;;4.00;;
35462;SDS011;21578;47.892;9.970;2022-09-27T16:07:03;23.50;;;14.80;;
35462;SDS011;21578;47.892;9.970;2022-09-27T16:11:53;23.80;;;15.00;;
35462;SDS011;21578;47.892;9.970;2022-09-27T16:16:39;15.67;;;11.33;;
35462;SDS011;21578;47.892;9.970;2022-09-27T16:21:28;269.53;;;147.43;;
35462;SDS011;21578;47.892;9.970;2022-09-27T16:26:16;1321.47;;;637.80;;
35462;SDS011;21578;47.892;9.970;2022-09-27T16:31:04;944.77;;;452.83;;
35462;SDS011;21578;47.892;9.970;2022-09-27T16:35:52;527.77;;;253.47;;
35462;SDS011;21578;47.892;9.970;2022-09-27T16:40:41;264.57;;;134.80;;
35462;SDS011;21578;47.892;9.970;2022-09-27T16:45:28;86.77;;;42.77;;
35462;SDS011;21578;47.892;9.970;2022-09-27T16:50:17;139.27;;;66.37;;
35462;SDS011;21578;47.892;9.970;2022-09-27T16:55:21;158.07;;;84.23;;
35462;SDS011;21578;47.892;9.970;2022-09-27T17:00:10;56.80;;;32.83;;
35462;SDS011;21578;47.892;9.970;2022-09-27T17:04:58;56.50;;;31.23;;
35462;SDS011;21578;47.892;9.970;2022-09-27T17:09:45;211.73;;;114.27;;
35462;SDS011;21578;47.892;9.970;2022-09-27T17:14:32;35.93;;;23.00;;
35462;SDS011;21578;47.892;9.970;2022-09-27T17:19:20;28.57;;;21.17;;
35462;SDS011;21578;47.892;9.970;2022-09-27T17:24:07;40.00;;;32.03;;
35462;SDS011;21578;47.892;9.970;2022-09-27T17:28:55;25.07;;;20.67;;
35462;SDS011;21578;47.892;9.970;2022-09-27T17:33:42;20.17;;;17.67;;
35462;SDS011;21578;47.892;9.970;2022-09-27T17:38:31;30.17;;;22.80;;
35462;SDS011;21578;47.892;9.970;2022-09-27T17:43:18;8.47;;;7.57;;
35462;SDS011;21578;47.892;9.970;2022-09-27T17:48:05;1.67;;;1.57;;
35462;SDS011;21578;47.892;9.970;2022-09-27T17:53:10;14.70;;;13.13;;
35462;SDS011;21578;47.892;9.970;2022-09-27T17:57:58;15.00;;;13.43;;
35462;SDS011;21578;47.892;9.970;2022-09-27T18:02:47;5.20;;;4.77;;
35462;SDS011;21578;47.892;9.970;2022-09-27T18:07:35;14.83;;;12.53;;
35462;SDS011;21578;47.892;9.970;2022-09-27T18:12:22;4.87;;;4.37;;
35462;SDS011;21578;47.892;9.970;2022-09-27T18:17:17;2.77;;;2.60;;
35462;SDS011;21578;47.892;9.970;2022-09-27T18:22:04;1.77;;;1.63;;
35462;SDS011;21578;47.892;9.970;2022-09-27T18:26:51;16.43;;;14.73;;
35462;SDS011;21578;47.892;9.970;2022-09-27T18:31:39;339.13;;;180.57;;
35462;SDS011;21578;47.892;9.970;2022-09-27T18:36:28;57.10;;;32.03;;
35462;SDS011;21578;47.892;9.970;2022-09-27T18:41:16;91.23;;;54.30;;
35462;SDS011;21578;47.892;9.970;2022-09-27T18:46:04;117.43;;;67.27;;
35462;SDS011;21578;47.892;9.970;2022-09-27T18:50:53;35.40;;;22.60;;
35462;SDS011;21578;47.892;9.970;2022-09-27T18:55:41;71.07;;;46.57;;
35462;SDS011;21578;47.892;9.970;2022-09-27T19:00:28;26.67;;;18.43;;
35462;SDS011;21578;47.892;9.970;2022-09-27T19:05:15;12.77;;;11.13;;
35462;SDS011;21578;47.892;9.970;2022-09-27T19:10:02;7.33;;;6.43;;
35462;SDS011;21578;47.892;9.970;2022-09-27T19:14:50;1.97;;;1.30;;
35462;SDS011;21578;47.892;9.970;2022-09-27T19:19:37;0.73;;;0.73;;
35462;SDS011;21578;47.892;9.970;2022-09-27T19:24:24;1.83;;;1.20;;
35462;SDS011;21578;47.892;9.970;2022-09-27T19:29:12;5.20;;;4.70;;
35462;SDS011;21578;47.892;9.970;2022-09-27T19:34:00;1.30;;;1.20;;
35462;SDS011;21578;47.892;9.970;2022-09-27T19:38:47;0.80;;;0.77;;
35462;SDS011;21578;47.892;9.970;2022-09-27T19:43:35;2.43;;;0.60;;
35462;SDS011;21578;47.892;9.970;2022-09-27T19:48:23;0.80;;;0.80;;
35462;SDS011;21578;47.892;9.970;2022-09-27T19:53:11;4.43;;;1.00;;
35462;SDS011;21578;47.892;9.970;2022-09-27T19:57:58;1.17;;;1.00;;
35462;SDS011;21578;47.892;9.970;2022-09-27T20:02:45;1.73;;;1.63;;
35462;SDS011;21578;47.892;9.970;2022-09-27T20:07:32;2.80;;;2.60;;
35462;SDS011;21578;47.892;9.970;2022-09-27T20:12:20;14.33;;;12.97;;
35462;SDS011;21578;47.892;9.970;2022-09-27T20:17:08;2.37;;;2.20;;
35462;SDS011;21578;47.892;9.970;2022-09-27T20:21:55;9.50;;;8.53;;
35462;SDS011;21578;47.892;9.970;2022-09-27T20:26:42;1.97;;;1.67;;
35462;SDS011;21578;47.892;9.970;2022-09-27T20:31:32;5.90;;;5.30;;
35462;SDS011;21578;47.892;9.970;2022-09-27T20:36:21;1.63;;;0.80;;
35462;SDS011;21578;47.892;9.970;2022-09-27T20:41:10;0.93;;;0.70;;
35462;SDS011;21578;47.892;9.970;2022-09-27T20:45:58;1.87;;;0.60;;
35462;SDS011;21578;47.892;9.970;2022-09-27T20:50:47;0.73;;;0.40;;
35462;SDS011;21578;47.892;9.970;2022-09-27T20:55:34;0.50;;;0.50;;
35462;SDS011;21578;47.892;9.970;2022-09-27T21:00:21;0.50;;;0.50;;
35462;SDS011;21578;47.892;9.970;2022-09-27T21:05:08;1.07;;;0.43;;
35462;SDS011;21578;47.892;9.970;2022-09-27T21:09:57;1.27;;;0.40;;
35462;SDS011;21578;47.892;9.970;2022-09-27T21:14:44;0.63;;;0.40;;
35462;SDS011;21578;47.892;9.970;2022-09-27T21:19:30;0.37;;;0.30;;
35462;SDS011;21578;47.892;9.970;2022-09-27T21:24:19;0.73;;;0.23;;
35462;SDS011;21578;47.892;9.970;2022-09-27T21:29:07;0.10;;;0.10;;
35462;SDS011;21578;47.892;9.970;2022-09-27T21:33:56;3.37;;;2.57;;
35462;SDS011;21578;47.892;9.970;2022-09-27T21:38:44;199.13;;;119.77;;
35462;SDS011;21578;47.892;9.970;2022-09-27T21:43:31;97.47;;;33.10;;
35462;SDS011;21578;47.892;9.970;2022-09-27T21:48:21;164.70;;;57.33;;
35462;SDS011;21578;47.892;9.970;2022-09-27T21:53:08;112.80;;;40.47;;
35462;SDS011;21578;47.892;9.970;2022-09-27T21:57:54;86.33;;;35.47;;
35462;SDS011;21578;47.892;9.970;2022-09-27T22:02:41;191.17;;;69.17;;
35462;SDS011;21578;47.892;9.970;2022-09-27T22:07:30;485.23;;;189.40;;
35462;SDS011;21578;47.892;9.970;2022-09-27T22:12:16;132.93;;;48.87;;
35462;SDS011;21578;47.892;9.970;2022-09-27T22:17:03;440.33;;;169.57;;
35462;SDS011;21578;47.892;9.970;2022-09-27T22:21:50;80.67;;;33.00;;
35462;SDS011;21578;47.892;9.970;2022-09-27T22:26:39;121.83;;;49.30;;
35462;SDS011;21578;47.892;9.970;2022-09-27T22:31:27;51.10;;;23.77;;
35462;SDS011;21578;47.892;9.970;2022-09-27T22:36:14;52.33;;;25.40;;
35462;SDS011;21578;47.892;9.970;2022-09-27T22:41:02;155.53;;;65.03;;
35462;SDS011;21578;47.892;9.970;2022-09-27T22:45:50;51.47;;;22.80;;
35462;SDS011;21578;47.892;9.970;2022-09-27T22:50:37;54.07;;;25.30;;
35462;SDS011;21578;47.892;9.970;2022-09-27T22:55:24;28.77;;;15.90;;
35462;SDS011;21578;47.892;9.970;2022-09-27T23:00:11;7.47;;;4.67;;
35462;SDS011;21578;47.892;9.970;2022-09-27T23:05:00;19.53;;;13.03;;
35462;SDS011;21578;47.892;9.970;2022-09-27T23:09:47;9.40;;;5.13;;
35462;SDS011;21578;47.892;9.970;2022-09-27T23:14:34;58.40;;;30.33;;
35462;SDS011;21578;47.892;9.970;2022-09-27T23:19:21;44.90;;;22.93;;
35462;SDS011;21578;47.892;9.970;2022-09-27T23:24:11;199.40;;;90.50;;
35462;SDS011;21578;47.892;9.970;2022-09-27T23:28:59;102.70;;;44.40;;
35462;SDS011;21578;47.892;9.970;2022-09-27T23:33:46;293.53;;;116.93;;
35462;SDS011;21578;47.892;9.970;2022-09-27T23:38:34;235.13;;;98.77;;
35462;SDS011;21578;47.892;9.970;2022-09-27T23:43:25;140.27;;;65.43;;
35462;SDS011;21578;47.892;9.970;2022-09-27T23:48:12;185.73;;;81.10;;
35462;SDS011;21578;47.892;9.970;2022-09-27T23:52:59;80.10;;;35.70;;
35462;SDS011;21578;47.892;9.970;2022-09-27T23:57:46;65.63;;;37.37;;
